sensor_id;sensor_type;location;lat;lon;timestamp;P1;durP1;ratioP1;P2;durP2;ratioP2
58553;SDS011;48119;53.218;6.576;2023-08-17T00:00:55;6.47;;;2.60;;
58553;SDS011;48119;53.218;6.576;2023-08-17T00:03:20;5.00;;;1.67;;
58553;SDS011;48119;53.218;6.576;2023-08-17T00:05:46;3.97;;;1.80;;
58553;SDS011;48119;53.218;6.576;2023-08-17T00:08:12;3.85;;;1.73;;
58553;SDS011;48119;53.218;6.576;2023-08-17T00:10:37;5.30;;;2.05;;
58553;SDS011;48119;53.218;6.576;2023-08-17T00:13:03;7.07;;;2.45;;
58553;SDS011;48119;53.218;6.576;2023-08-17T00:15:29;5.50;;;2.00;;
58553;SDS011;48119;53.218;6.576;2023-08-17T00:17:55;3.92;;;1.58;;
58553;SDS011;48119;53.218;6.576;2023-08-17T00:20:21;4.65;;;1.90;;
58553;SDS011;48119;53.218;6.576;2023-08-17T00:22:47;3.90;;;2.10;;
58553;SDS011;48119;53.218;6.576;2023-08-17T00:25:12;3.42;;;1.80;;
58553;SDS011;48119;53.218;6.576;2023-08-17T00:27:41;4.57;;;2.17;;
58553;SDS011;48119;53.218;6.576;2023-08-17T00:30:07;6.85;;;1.80;;
58553;SDS011;48119;53.218;6.576;2023-08-17T00:32:35;4.28;;;2.20;;
58553;SDS011;48119;53.218;6.576;2023-08-17T00:35:04;11.18;;;2.53;;
58553;SDS011;48119;53.218;6.576;2023-08-17T00:37:30;2.35;;;1.85;;
58553;SDS011;48119;53.218;6.576;2023-08-17T00:39:55;4.38;;;2.00;;
58553;SDS011;48119;53.218;6.576;2023-08-17T00:42:24;5.22;;;1.70;;
58553;SDS011;48119;53.218;6.576;2023-08-17T00:44:52;3.85;;;1.70;;
58553;SDS011;48119;53.218;6.576;2023-08-17T00:47:18;5.00;;;1.95;;
58553;SDS011;48119;53.218;6.576;2023-08-17T00:49:44;3.70;;;2.15;;
58553;SDS011;48119;53.218;6.576;2023-08-17T00:52:10;4.50;;;2.25;;
58553;SDS011;48119;53.218;6.576;2023-08-17T00:54:36;3.22;;;1.90;;
58553;SDS011;48119;53.218;6.576;2023-08-17T00:57:02;6.03;;;2.15;;
58553;SDS011;48119;53.218;6.576;2023-08-17T00:59:31;4.07;;;1.88;;
58553;SDS011;48119;53.218;6.576;2023-08-17T01:01:57;5.35;;;2.20;;
58553;SDS011;48119;53.218;6.576;2023-08-17T01:04:23;9.93;;;2.20;;
58553;SDS011;48119;53.218;6.576;2023-08-17T01:06:49;9.30;;;2.30;;
58553;SDS011;48119;53.218;6.576;2023-08-17T01:09:14;5.25;;;2.58;;
58553;SDS011;48119;53.218;6.576;2023-08-17T01:11:53;4.78;;;2.00;;
58553;SDS011;48119;53.218;6.576;2023-08-17T01:17:42;2.50;;;1.65;;
58553;SDS011;48119;53.218;6.576;2023-08-17T01:20:08;4.95;;;1.80;;
58553;SDS011;48119;53.218;6.576;2023-08-17T01:22:37;5.53;;;1.90;;
58553;SDS011;48119;53.218;6.576;2023-08-17T01:25:06;3.83;;;2.22;;
58553;SDS011;48119;53.218;6.576;2023-08-17T01:27:39;4.20;;;2.00;;
58553;SDS011;48119;53.218;6.576;2023-08-17T01:30:09;4.30;;;2.05;;
58553;SDS011;48119;53.218;6.576;2023-08-17T01:32:45;6.80;;;2.20;;
58553;SDS011;48119;53.218;6.576;2023-08-17T01:37:58;5.07;;;2.03;;
58553;SDS011;48119;53.218;6.576;2023-08-17T01:40:28;4.78;;;1.85;;
58553;SDS011;48119;53.218;6.576;2023-08-17T01:42:57;5.05;;;2.00;;
58553;SDS011;48119;53.218;6.576;2023-08-17T01:45:24;3.67;;;2.17;;
58553;SDS011;48119;53.218;6.576;2023-08-17T01:47:50;5.80;;;2.10;;
58553;SDS011;48119;53.218;6.576;2023-08-17T01:50:16;3.15;;;1.80;;
58553;SDS011;48119;53.218;6.576;2023-08-17T01:52:42;4.30;;;1.92;;
58553;SDS011;48119;53.218;6.576;2023-08-17T01:55:08;4.28;;;1.60;;
58553;SDS011;48119;53.218;6.576;2023-08-17T01:57:34;6.78;;;2.10;;
58553;SDS011;48119;53.218;6.576;2023-08-17T02:00:01;5.57;;;1.98;;
58553;SDS011;48119;53.218;6.576;2023-08-17T02:02:29;5.72;;;2.22;;
58553;SDS011;48119;53.218;6.576;2023-08-17T02:04:55;5.60;;;2.40;;
58553;SDS011;48119;53.218;6.576;2023-08-17T02:07:21;4.88;;;2.10;;
58553;SDS011;48119;53.218;6.576;2023-08-17T02:09:47;4.18;;;2.17;;
58553;SDS011;48119;53.218;6.576;2023-08-17T02:12:13;4.75;;;1.85;;
58553;SDS011;48119;53.218;6.576;2023-08-17T02:14:38;5.70;;;2.00;;
58553;SDS011;48119;53.218;6.576;2023-08-17T02:17:04;6.55;;;1.90;;
58553;SDS011;48119;53.218;6.576;2023-08-17T02:19:31;6.93;;;2.40;;
58553;SDS011;48119;53.218;6.576;2023-08-17T02:21:58;6.07;;;2.28;;
58553;SDS011;48119;53.218;6.576;2023-08-17T02:24:24;7.50;;;1.90;;
58553;SDS011;48119;53.218;6.576;2023-08-17T02:26:50;4.72;;;2.05;;
58553;SDS011;48119;53.218;6.576;2023-08-17T02:29:15;5.35;;;2.00;;
58553;SDS011;48119;53.218;6.576;2023-08-17T02:31:41;6.45;;;2.15;;
58553;SDS011;48119;53.218;6.576;2023-08-17T02:34:07;6.03;;;2.13;;
58553;SDS011;48119;53.218;6.576;2023-08-17T02:36:34;4.68;;;1.65;;
58553;SDS011;48119;53.218;6.576;2023-08-17T02:39:00;3.17;;;1.63;;
58553;SDS011;48119;53.218;6.576;2023-08-17T02:41:26;7.50;;;2.33;;
58553;SDS011;48119;53.218;6.576;2023-08-17T02:43:51;5.28;;;1.67;;
58553;SDS011;48119;53.218;6.576;2023-08-17T02:46:17;5.63;;;1.55;;
58553;SDS011;48119;53.218;6.576;2023-08-17T02:48:43;4.30;;;1.88;;
58553;SDS011;48119;53.218;6.576;2023-08-17T02:51:08;2.58;;;1.27;;
58553;SDS011;48119;53.218;6.576;2023-08-17T02:53:34;3.10;;;1.65;;
58553;SDS011;48119;53.218;6.576;2023-08-17T02:56:00;4.47;;;1.48;;
58553;SDS011;48119;53.218;6.576;2023-08-17T02:58:26;3.05;;;1.40;;
58553;SDS011;48119;53.218;6.576;2023-08-17T03:00:52;5.80;;;2.00;;
58553;SDS011;48119;53.218;6.576;2023-08-17T03:03:18;4.53;;;1.40;;
58553;SDS011;48119;53.218;6.576;2023-08-17T03:05:44;5.72;;;1.50;;
58553;SDS011;48119;53.218;6.576;2023-08-17T03:08:10;4.15;;;1.77;;
58553;SDS011;48119;53.218;6.576;2023-08-17T03:10:36;4.03;;;1.73;;
58553;SDS011;48119;53.218;6.576;2023-08-17T03:13:03;4.38;;;1.98;;
58553;SDS011;48119;53.218;6.576;2023-08-17T03:15:28;5.35;;;2.17;;
58553;SDS011;48119;53.218;6.576;2023-08-17T03:17:54;2.90;;;1.55;;
58553;SDS011;48119;53.218;6.576;2023-08-17T03:20:20;5.10;;;1.77;;
58553;SDS011;48119;53.218;6.576;2023-08-17T03:22:46;4.25;;;1.70;;
58553;SDS011;48119;53.218;6.576;2023-08-17T03:25:12;4.05;;;1.98;;
58553;SDS011;48119;53.218;6.576;2023-08-17T03:27:38;3.22;;;2.10;;
58553;SDS011;48119;53.218;6.576;2023-08-17T03:30:06;3.10;;;1.60;;
58553;SDS011;48119;53.218;6.576;2023-08-17T03:32:32;2.90;;;1.45;;
58553;SDS011;48119;53.218;6.576;2023-08-17T03:34:58;6.05;;;2.05;;
58553;SDS011;48119;53.218;6.576;2023-08-17T03:37:24;4.10;;;1.60;;
58553;SDS011;48119;53.218;6.576;2023-08-17T03:39:50;6.13;;;1.90;;
58553;SDS011;48119;53.218;6.576;2023-08-17T03:42:15;4.47;;;1.58;;
58553;SDS011;48119;53.218;6.576;2023-08-17T03:44:41;4.45;;;1.50;;
58553;SDS011;48119;53.218;6.576;2023-08-17T03:47:07;3.58;;;1.70;;
58553;SDS011;48119;53.218;6.576;2023-08-17T03:49:33;3.70;;;1.65;;
58553;SDS011;48119;53.218;6.576;2023-08-17T03:51:59;5.10;;;1.70;;
58553;SDS011;48119;53.218;6.576;2023-08-17T03:54:25;3.65;;;1.65;;
58553;SDS011;48119;53.218;6.576;2023-08-17T03:56:50;4.20;;;1.63;;
58553;SDS011;48119;53.218;6.576;2023-08-17T03:59:16;3.70;;;1.55;;
58553;SDS011;48119;53.218;6.576;2023-08-17T04:01:42;2.72;;;1.52;;
58553;SDS011;48119;53.218;6.576;2023-08-17T04:04:09;2.88;;;1.85;;
58553;SDS011;48119;53.218;6.576;2023-08-17T04:06:35;4.50;;;1.85;;
58553;SDS011;48119;53.218;6.576;2023-08-17T04:09:01;5.38;;;1.60;;
58553;SDS011;48119;53.218;6.576;2023-08-17T04:11:27;3.78;;;1.98;;
58553;SDS011;48119;53.218;6.576;2023-08-17T04:13:53;4.45;;;2.13;;
58553;SDS011;48119;53.218;6.576;2023-08-17T04:16:18;7.15;;;2.22;;
58553;SDS011;48119;53.218;6.576;2023-08-17T04:18:44;5.68;;;2.30;;
58553;SDS011;48119;53.218;6.576;2023-08-17T04:21:10;5.05;;;1.80;;
58553;SDS011;48119;53.218;6.576;2023-08-17T04:23:35;3.25;;;1.70;;
58553;SDS011;48119;53.218;6.576;2023-08-17T04:26:01;3.38;;;1.83;;
58553;SDS011;48119;53.218;6.576;2023-08-17T04:28:27;3.55;;;1.90;;
58553;SDS011;48119;53.218;6.576;2023-08-17T04:30:53;6.78;;;2.42;;
58553;SDS011;48119;53.218;6.576;2023-08-17T04:33:18;2.75;;;2.15;;
58553;SDS011;48119;53.218;6.576;2023-08-17T04:35:46;5.72;;;2.08;;
58553;SDS011;48119;53.218;6.576;2023-08-17T04:38:13;5.82;;;2.40;;
58553;SDS011;48119;53.218;6.576;2023-08-17T04:40:38;8.93;;;2.13;;
58553;SDS011;48119;53.218;6.576;2023-08-17T04:43:04;5.85;;;2.40;;
58553;SDS011;48119;53.218;6.576;2023-08-17T04:45:30;7.07;;;2.10;;
58553;SDS011;48119;53.218;6.576;2023-08-17T04:47:56;4.32;;;2.10;;
58553;SDS011;48119;53.218;6.576;2023-08-17T04:50:21;3.65;;;1.80;;
58553;SDS011;48119;53.218;6.576;2023-08-17T04:52:47;3.55;;;1.83;;
58553;SDS011;48119;53.218;6.576;2023-08-17T04:55:13;5.90;;;1.80;;
58553;SDS011;48119;53.218;6.576;2023-08-17T04:57:39;7.60;;;1.85;;
58553;SDS011;48119;53.218;6.576;2023-08-17T05:00:05;6.95;;;1.95;;
58553;SDS011;48119;53.218;6.576;2023-08-17T05:02:34;5.35;;;2.15;;
58553;SDS011;48119;53.218;6.576;2023-08-17T05:05:02;6.57;;;2.03;;
58553;SDS011;48119;53.218;6.576;2023-08-17T05:07:29;4.90;;;2.13;;
58553;SDS011;48119;53.218;6.576;2023-08-17T05:09:55;3.67;;;2.05;;
58553;SDS011;48119;53.218;6.576;2023-08-17T05:12:20;3.60;;;2.13;;
58553;SDS011;48119;53.218;6.576;2023-08-17T05:14:46;5.63;;;2.17;;
58553;SDS011;48119;53.218;6.576;2023-08-17T05:17:12;3.78;;;1.50;;
58553;SDS011;48119;53.218;6.576;2023-08-17T05:19:37;3.50;;;1.77;;
58553;SDS011;48119;53.218;6.576;2023-08-17T05:22:08;4.03;;;1.45;;
58553;SDS011;48119;53.218;6.576;2023-08-17T05:24:36;4.53;;;1.45;;
58553;SDS011;48119;53.218;6.576;2023-08-17T05:27:02;2.45;;;1.50;;
58553;SDS011;48119;53.218;6.576;2023-08-17T05:29:28;4.65;;;1.40;;
58553;SDS011;48119;53.218;6.576;2023-08-17T05:31:54;7.72;;;1.98;;
58553;SDS011;48119;53.218;6.576;2023-08-17T05:34:19;5.53;;;2.05;;
58553;SDS011;48119;53.218;6.576;2023-08-17T05:36:45;6.10;;;2.13;;
58553;SDS011;48119;53.218;6.576;2023-08-17T05:39:11;5.38;;;1.88;;
58553;SDS011;48119;53.218;6.576;2023-08-17T05:41:37;3.63;;;1.67;;
58553;SDS011;48119;53.218;6.576;2023-08-17T05:44:03;4.65;;;1.75;;
58553;SDS011;48119;53.218;6.576;2023-08-17T05:46:29;4.50;;;1.77;;
58553;SDS011;48119;53.218;6.576;2023-08-17T05:48:58;5.68;;;1.63;;
58553;SDS011;48119;53.218;6.576;2023-08-17T05:51:24;3.42;;;1.40;;
58553;SDS011;48119;53.218;6.576;2023-08-17T05:53:50;4.97;;;1.70;;
58553;SDS011;48119;53.218;6.576;2023-08-17T05:56:15;7.68;;;1.95;;
58553;SDS011;48119;53.218;6.576;2023-08-17T05:58:41;3.17;;;1.90;;
58553;SDS011;48119;53.218;6.576;2023-08-17T06:01:10;7.57;;;1.65;;
58553;SDS011;48119;53.218;6.576;2023-08-17T06:03:36;4.07;;;1.50;;
58553;SDS011;48119;53.218;6.576;2023-08-17T06:06:03;4.57;;;1.70;;
58553;SDS011;48119;53.218;6.576;2023-08-17T06:08:30;4.25;;;1.65;;
58553;SDS011;48119;53.218;6.576;2023-08-17T06:10:56;3.42;;;1.73;;
58553;SDS011;48119;53.218;6.576;2023-08-17T06:13:22;4.20;;;1.40;;
58553;SDS011;48119;53.218;6.576;2023-08-17T06:15:48;3.95;;;1.75;;
58553;SDS011;48119;53.218;6.576;2023-08-17T06:18:14;2.92;;;1.88;;
58553;SDS011;48119;53.218;6.576;2023-08-17T06:20:39;5.13;;;2.15;;
58553;SDS011;48119;53.218;6.576;2023-08-17T06:23:05;4.13;;;1.73;;
58553;SDS011;48119;53.218;6.576;2023-08-17T06:25:31;3.83;;;1.45;;
58553;SDS011;48119;53.218;6.576;2023-08-17T06:27:57;8.88;;;1.73;;
58553;SDS011;48119;53.218;6.576;2023-08-17T06:30:23;4.18;;;1.65;;
58553;SDS011;48119;53.218;6.576;2023-08-17T06:32:52;3.42;;;1.77;;
58553;SDS011;48119;53.218;6.576;2023-08-17T06:35:17;5.28;;;1.63;;
58553;SDS011;48119;53.218;6.576;2023-08-17T06:37:43;3.70;;;1.45;;
58553;SDS011;48119;53.218;6.576;2023-08-17T06:40:09;7.05;;;1.80;;
58553;SDS011;48119;53.218;6.576;2023-08-17T06:42:35;4.30;;;1.70;;
58553;SDS011;48119;53.218;6.576;2023-08-17T06:45:01;6.60;;;1.63;;
58553;SDS011;48119;53.218;6.576;2023-08-17T06:47:28;3.30;;;1.30;;
58553;SDS011;48119;53.218;6.576;2023-08-17T06:49:54;7.15;;;1.75;;
58553;SDS011;48119;53.218;6.576;2023-08-17T06:52:20;2.90;;;1.50;;
58553;SDS011;48119;53.218;6.576;2023-08-17T06:54:46;8.00;;;1.60;;
58553;SDS011;48119;53.218;6.576;2023-08-17T06:57:11;5.90;;;1.48;;
58553;SDS011;48119;53.218;6.576;2023-08-17T06:59:37;5.68;;;1.60;;
58553;SDS011;48119;53.218;6.576;2023-08-17T07:02:03;4.43;;;1.00;;
58553;SDS011;48119;53.218;6.576;2023-08-17T07:04:29;4.95;;;1.40;;
58553;SDS011;48119;53.218;6.576;2023-08-17T07:06:54;3.15;;;1.35;;
58553;SDS011;48119;53.218;6.576;2023-08-17T07:09:20;4.72;;;1.63;;
58553;SDS011;48119;53.218;6.576;2023-08-17T07:11:46;4.57;;;1.50;;
58553;SDS011;48119;53.218;6.576;2023-08-17T07:14:12;4.80;;;1.40;;
58553;SDS011;48119;53.218;6.576;2023-08-17T07:16:38;5.80;;;1.60;;
58553;SDS011;48119;53.218;6.576;2023-08-17T07:19:03;5.85;;;1.48;;
58553;SDS011;48119;53.218;6.576;2023-08-17T07:21:29;6.13;;;1.30;;
58553;SDS011;48119;53.218;6.576;2023-08-17T07:23:55;4.70;;;1.30;;
58553;SDS011;48119;53.218;6.576;2023-08-17T07:26:21;2.38;;;1.20;;
58553;SDS011;48119;53.218;6.576;2023-08-17T07:28:48;4.38;;;1.48;;
58553;SDS011;48119;53.218;6.576;2023-08-17T07:31:14;5.63;;;1.88;;
58553;SDS011;48119;53.218;6.576;2023-08-17T07:33:41;2.67;;;1.50;;
58553;SDS011;48119;53.218;6.576;2023-08-17T07:36:06;3.97;;;1.70;;
58553;SDS011;48119;53.218;6.576;2023-08-17T07:38:32;3.00;;;1.08;;
58553;SDS011;48119;53.218;6.576;2023-08-17T07:40:58;2.88;;;1.33;;
58553;SDS011;48119;53.218;6.576;2023-08-17T07:43:24;4.18;;;1.25;;
58553;SDS011;48119;53.218;6.576;2023-08-17T07:45:56;4.68;;;1.42;;
58553;SDS011;48119;53.218;6.576;2023-08-17T07:48:22;3.80;;;1.42;;
58553;SDS011;48119;53.218;6.576;2023-08-17T07:50:49;5.80;;;1.33;;
58553;SDS011;48119;53.218;6.576;2023-08-17T07:53:16;2.55;;;1.40;;
58553;SDS011;48119;53.218;6.576;2023-08-17T07:55:43;7.88;;;1.23;;
58553;SDS011;48119;53.218;6.576;2023-08-17T07:58:09;2.00;;;1.10;;
58553;SDS011;48119;53.218;6.576;2023-08-17T08:00:34;4.85;;;1.23;;
58553;SDS011;48119;53.218;6.576;2023-08-17T08:03:00;3.08;;;0.90;;
58553;SDS011;48119;53.218;6.576;2023-08-17T08:05:26;2.35;;;1.20;;
58553;SDS011;48119;53.218;6.576;2023-08-17T08:07:52;7.45;;;1.67;;
58553;SDS011;48119;53.218;6.576;2023-08-17T08:10:18;4.47;;;1.27;;
58553;SDS011;48119;53.218;6.576;2023-08-17T08:12:44;9.98;;;2.28;;
58553;SDS011;48119;53.218;6.576;2023-08-17T08:15:10;3.40;;;1.17;;
58553;SDS011;48119;53.218;6.576;2023-08-17T08:17:35;3.95;;;1.13;;
58553;SDS011;48119;53.218;6.576;2023-08-17T08:20:02;1.83;;;1.10;;
58553;SDS011;48119;53.218;6.576;2023-08-17T08:22:29;3.22;;;0.90;;
58553;SDS011;48119;53.218;6.576;2023-08-17T08:24:54;7.30;;;1.38;;
58553;SDS011;48119;53.218;6.576;2023-08-17T08:27:20;1.67;;;1.00;;
58553;SDS011;48119;53.218;6.576;2023-08-17T08:29:46;2.33;;;0.88;;
58553;SDS011;48119;53.218;6.576;2023-08-17T08:32:12;3.28;;;1.10;;
58553;SDS011;48119;53.218;6.576;2023-08-17T08:34:39;4.57;;;1.10;;
58553;SDS011;48119;53.218;6.576;2023-08-17T08:37:05;6.90;;;1.35;;
58553;SDS011;48119;53.218;6.576;2023-08-17T08:39:30;5.30;;;1.10;;
58553;SDS011;48119;53.218;6.576;2023-08-17T08:41:56;2.65;;;1.00;;
58553;SDS011;48119;53.218;6.576;2023-08-17T08:44:23;5.25;;;1.20;;
58553;SDS011;48119;53.218;6.576;2023-08-17T08:46:48;2.50;;;1.20;;
58553;SDS011;48119;53.218;6.576;2023-08-17T08:49:16;6.70;;;1.27;;
58553;SDS011;48119;53.218;6.576;2023-08-17T08:51:48;5.78;;;2.25;;
58553;SDS011;48119;53.218;6.576;2023-08-17T08:54:22;3.25;;;1.25;;
58553;SDS011;48119;53.218;6.576;2023-08-17T08:56:59;4.15;;;1.10;;
58553;SDS011;48119;53.218;6.576;2023-08-17T08:59:29;3.45;;;1.20;;
58553;SDS011;48119;53.218;6.576;2023-08-17T09:01:55;2.67;;;1.45;;
58553;SDS011;48119;53.218;6.576;2023-08-17T09:04:23;3.72;;;1.33;;
58553;SDS011;48119;53.218;6.576;2023-08-17T09:06:50;2.30;;;1.20;;
58553;SDS011;48119;53.218;6.576;2023-08-17T09:09:16;2.83;;;1.05;;
58553;SDS011;48119;53.218;6.576;2023-08-17T09:11:43;2.90;;;1.15;;
58553;SDS011;48119;53.218;6.576;2023-08-17T09:14:09;6.07;;;1.42;;
58553;SDS011;48119;53.218;6.576;2023-08-17T09:16:35;3.28;;;1.00;;
58553;SDS011;48119;53.218;6.576;2023-08-17T09:19:01;4.32;;;1.58;;
58553;SDS011;48119;53.218;6.576;2023-08-17T09:21:30;3.60;;;1.15;;
58553;SDS011;48119;53.218;6.576;2023-08-17T09:23:57;4.43;;;1.77;;
58553;SDS011;48119;53.218;6.576;2023-08-17T09:26:23;5.47;;;1.20;;
58553;SDS011;48119;53.218;6.576;2023-08-17T09:28:49;2.22;;;1.20;;
58553;SDS011;48119;53.218;6.576;2023-08-17T09:31:19;2.85;;;1.15;;
58553;SDS011;48119;53.218;6.576;2023-08-17T09:33:48;2.75;;;1.00;;
58553;SDS011;48119;53.218;6.576;2023-08-17T09:36:21;3.83;;;1.13;;
58553;SDS011;48119;53.218;6.576;2023-08-17T09:38:50;2.40;;;0.85;;
58553;SDS011;48119;53.218;6.576;2023-08-17T09:41:19;3.75;;;1.45;;
58553;SDS011;48119;53.218;6.576;2023-08-17T09:43:48;4.43;;;1.10;;
58553;SDS011;48119;53.218;6.576;2023-08-17T09:46:14;4.40;;;1.15;;
58553;SDS011;48119;53.218;6.576;2023-08-17T09:48:40;2.58;;;1.20;;
58553;SDS011;48119;53.218;6.576;2023-08-17T09:51:09;4.03;;;1.13;;
58553;SDS011;48119;53.218;6.576;2023-08-17T09:53:35;2.45;;;1.20;;
58553;SDS011;48119;53.218;6.576;2023-08-17T09:56:05;5.85;;;1.23;;
58553;SDS011;48119;53.218;6.576;2023-08-17T09:58:32;2.35;;;1.10;;
58553;SDS011;48119;53.218;6.576;2023-08-17T10:00:58;4.95;;;1.20;;
58553;SDS011;48119;53.218;6.576;2023-08-17T10:03:32;4.13;;;1.20;;
58553;SDS011;48119;53.218;6.576;2023-08-17T10:06:00;6.18;;;1.45;;
58553;SDS011;48119;53.218;6.576;2023-08-17T10:08:31;6.90;;;1.30;;
58553;SDS011;48119;53.218;6.576;2023-08-17T10:11:01;5.88;;;1.85;;
58553;SDS011;48119;53.218;6.576;2023-08-17T10:13:31;6.05;;;1.30;;
58553;SDS011;48119;53.218;6.576;2023-08-17T10:16:03;3.97;;;1.20;;
58553;SDS011;48119;53.218;6.576;2023-08-17T10:18:37;2.50;;;1.20;;
58553;SDS011;48119;53.218;6.576;2023-08-17T10:21:21;5.32;;;1.58;;
58553;SDS011;48119;53.218;6.576;2023-08-17T10:23:56;2.97;;;1.10;;
58553;SDS011;48119;53.218;6.576;2023-08-17T10:26:23;3.60;;;1.27;;
58553;SDS011;48119;53.218;6.576;2023-08-17T10:28:50;4.55;;;1.63;;
58553;SDS011;48119;53.218;6.576;2023-08-17T10:31:17;2.30;;;1.60;;
58553;SDS011;48119;53.218;6.576;2023-08-17T10:33:43;5.90;;;2.13;;
58553;SDS011;48119;53.218;6.576;2023-08-17T10:36:12;4.00;;;1.42;;
58553;SDS011;48119;53.218;6.576;2023-08-17T10:38:39;4.70;;;1.70;;
58553;SDS011;48119;53.218;6.576;2023-08-17T10:43:35;3.03;;;1.33;;
58553;SDS011;48119;53.218;6.576;2023-08-17T10:46:18;3.28;;;1.52;;
58553;SDS011;48119;53.218;6.576;2023-08-17T10:48:44;5.15;;;1.60;;
58553;SDS011;48119;53.218;6.576;2023-08-17T10:51:10;2.47;;;1.35;;
58553;SDS011;48119;53.218;6.576;2023-08-17T10:53:38;2.50;;;1.50;;
58553;SDS011;48119;53.218;6.576;2023-08-17T10:56:10;3.10;;;1.30;;
58553;SDS011;48119;53.218;6.576;2023-08-17T10:58:38;3.13;;;1.20;;
58553;SDS011;48119;53.218;6.576;2023-08-17T11:01:06;2.53;;;1.27;;
58553;SDS011;48119;53.218;6.576;2023-08-17T11:03:32;4.72;;;1.60;;
58553;SDS011;48119;53.218;6.576;2023-08-17T11:05:59;2.72;;;1.30;;
58553;SDS011;48119;53.218;6.576;2023-08-17T11:08:51;7.00;;;1.88;;
58553;SDS011;48119;53.218;6.576;2023-08-17T11:11:20;5.60;;;1.90;;
58553;SDS011;48119;53.218;6.576;2023-08-17T11:13:47;5.13;;;1.77;;
58553;SDS011;48119;53.218;6.576;2023-08-17T11:16:14;5.50;;;1.50;;
58553;SDS011;48119;53.218;6.576;2023-08-17T11:18:42;5.80;;;2.45;;
58553;SDS011;48119;53.218;6.576;2023-08-17T11:21:09;4.47;;;2.03;;
58553;SDS011;48119;53.218;6.576;2023-08-17T11:23:36;6.25;;;1.60;;
58553;SDS011;48119;53.218;6.576;2023-08-17T11:26:02;3.47;;;1.60;;
58553;SDS011;48119;53.218;6.576;2023-08-17T11:28:29;5.68;;;1.75;;
58553;SDS011;48119;53.218;6.576;2023-08-17T11:31:03;8.07;;;2.38;;
58553;SDS011;48119;53.218;6.576;2023-08-17T11:33:34;8.68;;;2.28;;
58553;SDS011;48119;53.218;6.576;2023-08-17T11:36:03;6.30;;;1.73;;
58553;SDS011;48119;53.218;6.576;2023-08-17T11:38:35;7.43;;;1.83;;
58553;SDS011;48119;53.218;6.576;2023-08-17T11:41:01;4.07;;;1.60;;
58553;SDS011;48119;53.218;6.576;2023-08-17T11:43:28;6.43;;;2.22;;
58553;SDS011;48119;53.218;6.576;2023-08-17T11:45:55;2.30;;;1.42;;
58553;SDS011;48119;53.218;6.576;2023-08-17T11:48:21;6.93;;;1.83;;
58553;SDS011;48119;53.218;6.576;2023-08-17T11:50:48;4.90;;;1.73;;
58553;SDS011;48119;53.218;6.576;2023-08-17T11:53:14;7.85;;;1.92;;
58553;SDS011;48119;53.218;6.576;2023-08-17T11:55:40;6.05;;;2.03;;
58553;SDS011;48119;53.218;6.576;2023-08-17T11:58:06;5.13;;;1.98;;
58553;SDS011;48119;53.218;6.576;2023-08-17T12:00:42;4.15;;;1.80;;
58553;SDS011;48119;53.218;6.576;2023-08-17T12:03:15;2.25;;;1.70;;
58553;SDS011;48119;53.218;6.576;2023-08-17T12:05:41;5.18;;;1.70;;
58553;SDS011;48119;53.218;6.576;2023-08-17T12:08:07;6.03;;;2.10;;
58553;SDS011;48119;53.218;6.576;2023-08-17T12:10:33;3.58;;;1.85;;
58553;SDS011;48119;53.218;6.576;2023-08-17T12:13:00;4.55;;;1.73;;
58553;SDS011;48119;53.218;6.576;2023-08-17T12:15:30;5.35;;;2.17;;
58553;SDS011;48119;53.218;6.576;2023-08-17T12:18:01;8.07;;;1.70;;
58553;SDS011;48119;53.218;6.576;2023-08-17T12:20:29;3.60;;;1.58;;
58553;SDS011;48119;53.218;6.576;2023-08-17T12:22:57;4.70;;;1.63;;
58553;SDS011;48119;53.218;6.576;2023-08-17T12:25:26;4.68;;;1.80;;
58553;SDS011;48119;53.218;6.576;2023-08-17T12:27:51;4.82;;;1.70;;
58553;SDS011;48119;53.218;6.576;2023-08-17T12:30:55;3.53;;;1.40;;
58553;SDS011;48119;53.218;6.576;2023-08-17T12:33:09;3.90;;;1.83;;
58553;SDS011;48119;53.218;6.576;2023-08-17T12:35:35;3.60;;;1.48;;
58553;SDS011;48119;53.218;6.576;2023-08-17T12:38:00;3.70;;;1.98;;
58553;SDS011;48119;53.218;6.576;2023-08-17T12:40:26;6.03;;;2.10;;
58553;SDS011;48119;53.218;6.576;2023-08-17T12:42:52;6.47;;;1.85;;
58553;SDS011;48119;53.218;6.576;2023-08-17T12:45:18;4.95;;;1.95;;
58553;SDS011;48119;53.218;6.576;2023-08-17T12:47:43;8.75;;;2.20;;
58553;SDS011;48119;53.218;6.576;2023-08-17T12:50:09;4.72;;;1.50;;
58553;SDS011;48119;53.218;6.576;2023-08-17T12:52:35;4.10;;;2.10;;
58553;SDS011;48119;53.218;6.576;2023-08-17T12:55:01;5.97;;;2.15;;
58553;SDS011;48119;53.218;6.576;2023-08-17T12:57:27;4.45;;;1.73;;
58553;SDS011;48119;53.218;6.576;2023-08-17T12:59:53;5.55;;;2.08;;
58553;SDS011;48119;53.218;6.576;2023-08-17T13:02:19;6.55;;;2.28;;
58553;SDS011;48119;53.218;6.576;2023-08-17T13:04:45;3.88;;;1.90;;
58553;SDS011;48119;53.218;6.576;2023-08-17T13:07:11;4.40;;;1.80;;
58553;SDS011;48119;53.218;6.576;2023-08-17T13:09:37;5.07;;;1.77;;
58553;SDS011;48119;53.218;6.576;2023-08-17T13:12:03;7.65;;;1.88;;
58553;SDS011;48119;53.218;6.576;2023-08-17T13:14:29;7.32;;;2.00;;
58553;SDS011;48119;53.218;6.576;2023-08-17T13:16:54;4.80;;;1.70;;
58553;SDS011;48119;53.218;6.576;2023-08-17T13:19:20;4.85;;;1.73;;
58553;SDS011;48119;53.218;6.576;2023-08-17T13:21:46;8.50;;;1.98;;
58553;SDS011;48119;53.218;6.576;2023-08-17T13:24:12;5.28;;;2.00;;
58553;SDS011;48119;53.218;6.576;2023-08-17T13:26:37;5.72;;;2.50;;
58553;SDS011;48119;53.218;6.576;2023-08-17T13:29:03;2.83;;;1.73;;
58553;SDS011;48119;53.218;6.576;2023-08-17T13:31:29;6.32;;;2.08;;
58553;SDS011;48119;53.218;6.576;2023-08-17T13:33:55;3.40;;;1.90;;
58553;SDS011;48119;53.218;6.576;2023-08-17T13:36:21;4.28;;;1.75;;
58553;SDS011;48119;53.218;6.576;2023-08-17T13:38:46;3.45;;;2.00;;
58553;SDS011;48119;53.218;6.576;2023-08-17T13:41:12;8.50;;;2.33;;
58553;SDS011;48119;53.218;6.576;2023-08-17T13:43:38;7.03;;;1.88;;
58553;SDS011;48119;53.218;6.576;2023-08-17T13:46:04;4.50;;;1.75;;
58553;SDS011;48119;53.218;6.576;2023-08-17T13:48:30;5.13;;;1.75;;
58553;SDS011;48119;53.218;6.576;2023-08-17T13:50:56;3.08;;;1.60;;
58553;SDS011;48119;53.218;6.576;2023-08-17T13:53:22;2.90;;;1.80;;
58553;SDS011;48119;53.218;6.576;2023-08-17T13:55:47;3.20;;;1.70;;
58553;SDS011;48119;53.218;6.576;2023-08-17T13:58:13;5.63;;;2.13;;
58553;SDS011;48119;53.218;6.576;2023-08-17T14:00:40;5.53;;;2.10;;
58553;SDS011;48119;53.218;6.576;2023-08-17T14:03:06;4.45;;;1.95;;
58553;SDS011;48119;53.218;6.576;2023-08-17T14:05:32;3.70;;;1.90;;
58553;SDS011;48119;53.218;6.576;2023-08-17T14:07:58;3.13;;;1.90;;
58553;SDS011;48119;53.218;6.576;2023-08-17T14:10:24;5.72;;;2.55;;
58553;SDS011;48119;53.218;6.576;2023-08-17T14:12:50;5.28;;;2.13;;
58553;SDS011;48119;53.218;6.576;2023-08-17T14:15:15;5.80;;;2.35;;
58553;SDS011;48119;53.218;6.576;2023-08-17T14:17:41;9.48;;;2.10;;
58553;SDS011;48119;53.218;6.576;2023-08-17T14:20:07;6.47;;;2.45;;
58553;SDS011;48119;53.218;6.576;2023-08-17T14:22:33;4.93;;;2.20;;
58553;SDS011;48119;53.218;6.576;2023-08-17T14:24:59;3.45;;;1.95;;
58553;SDS011;48119;53.218;6.576;2023-08-17T14:27:25;5.63;;;2.75;;
58553;SDS011;48119;53.218;6.576;2023-08-17T14:29:50;5.00;;;2.20;;
58553;SDS011;48119;53.218;6.576;2023-08-17T14:32:16;9.07;;;2.53;;
58553;SDS011;48119;53.218;6.576;2023-08-17T14:34:42;6.63;;;2.38;;
58553;SDS011;48119;53.218;6.576;2023-08-17T14:37:07;4.10;;;2.10;;
58553;SDS011;48119;53.218;6.576;2023-08-17T14:39:33;6.70;;;2.20;;
58553;SDS011;48119;53.218;6.576;2023-08-17T14:41:59;6.00;;;2.10;;
58553;SDS011;48119;53.218;6.576;2023-08-17T14:44:25;5.38;;;2.70;;
58553;SDS011;48119;53.218;6.576;2023-08-17T14:46:50;6.63;;;2.55;;
58553;SDS011;48119;53.218;6.576;2023-08-17T14:49:16;5.10;;;2.08;;
58553;SDS011;48119;53.218;6.576;2023-08-17T14:51:42;6.32;;;2.47;;
58553;SDS011;48119;53.218;6.576;2023-08-17T14:54:09;3.40;;;2.25;;